Silver Peak Trail, Santa Catalina Island Weather observations

Data are for 10 minute period ending at time listed.
 Day   Time   Solar   Ave.   Ave.  Ave.  Vector    Max.   Stn.    Total
  of    of     Rad.   Air    Rel.  Wind   Wind     Wind   Baro.  Precip.
Year   Day            Temp.  Hum.  Speed  Dir.     Gust   Pres.         
2016   (PST)   W/m2    F      %     mph   deg.      mph    mb.     in.  
------------------------------------------------------------------------
 211    7:50  443.0    80   42.7     4    309.0     6.6    999.0   0.00  
 211    8:00  474.0    79   48.0     5    307.9     7.2    999.0   0.00  
 211    8:10  507.0    79   54.8     3    308.2     6.0    999.0   0.00  
 211    8:20  538.0    78   60.3     4    311.6     5.4    999.0   0.00  
 211    8:30  570.0    80   49.7     3    312.6     5.4    999.0   0.00  
 211    8:40  600.0    78   60.1     3    313.1     4.8    999.0   0.00  
 211    8:50  629.0    76   64.9     5    312.2     7.2    999.0   0.00  
 211    9:00  657.0    74   68.4     6    304.2     9.6    999.0   0.00  
 211    9:10  684.0    73   70.4     6    296.0     9.0    999.0   0.00  
 211    9:20  710.0    76   64.5     4    309.9     7.8    999.0   0.00  
 211    9:30  734.0    77   61.3     4    308.3     7.2    999.0   0.00  
 211    9:40  756.0    77   64.0     5    311.9     7.8    999.0   0.00  
 211    9:50  779.0    77   64.9     4    310.4     8.4    999.0   0.00  
 211   10:00  801.0    80   58.0     3    325.8     5.4    999.0   0.00  
 211   10:10  820.0    80   51.8     3    326.5     4.8    999.0   0.00  
 211   10:20  838.0    84   43.4     3    326.6     5.4    999.0   0.00  
 211   10:30  854.0    83   48.6     4    326.8     6.0    999.0   0.00  
 211   10:40  869.0    82   52.0     3    327.1     5.4    999.0   0.00  
 211   10:50  883.0    82   52.6     3    327.3     6.0    999.0   0.00  
 211   11:00  894.0    81   57.3     4    331.4     6.0    999.0   0.00  
 211   11:10  905.0    83   55.0     3    332.3     5.4    999.0   0.00  
 211   11:20  913.0    80   60.0     3    348.0     6.6    999.0   0.00  
 211   11:30  921.0    80   61.4     3    359.9     4.8    999.0   0.00  
 211   11:40  926.0    80   60.0     3    343.6     5.4    999.0   0.00  
 211   11:50  930.0    81   60.3     3    336.0     6.6    999.0   0.00  
 211   12:00  931.0    81   60.2     4    323.1     7.2    999.0   0.00  
 211   12:10  932.0    80   61.9     3    327.0     6.0    999.0   0.00  
 211   12:20  930.0    81   60.0     4    326.7     7.2    999.0   0.00  
 211   12:30  926.0    80   62.6     3    326.6     6.0    999.0   0.00  
 211   12:40  923.0    81   60.2     3    327.7     5.4    999.0   0.00  
 211   12:50  916.0    81   60.3     4    326.8     7.2    999.0   0.00  
 211   13:00  909.0    81   60.0     4    329.2     7.2    999.0   0.00  
 211   13:10  898.0    80   62.0     4    327.4     7.2    999.0   0.00  
 211   13:20  884.0    80   62.1     3    327.1     6.6    999.0   0.00  
 211   13:30  870.0    78   63.7     4    332.1     7.8    999.0   0.00  
 211   13:40  855.0    79   63.7     4    333.0     7.8    999.0   0.00  
 211   13:50  836.0    80   62.0     4    333.1     6.6    999.0   0.00  
 211   14:00  822.0    81   59.4     4    333.1     6.6    999.0   0.00  
 211   14:10  802.0    83   57.5     2    333.1     4.2    999.0   0.00  
 211   14:20  782.0    86   52.8     3    333.1     4.8    999.0   0.00  
 211   14:30  758.0    82   57.4     2    333.0     4.8    999.0   0.00  
 211   14:40  735.0    87   50.4     2    332.9     4.2    999.0   0.00  
 211   14:50  713.0    87   50.2     3    333.1     4.8    999.0   0.00  
 211   15:00  689.0    86   50.1     3    336.7     6.6    999.0   0.00  
 211   15:10  662.0    86   50.4     4    342.7     7.2    999.0   0.00  
 211   15:20  632.0    84   51.7     5    343.1     7.2    999.0   0.00  
 211   15:30  604.0    84   49.1     5    346.7     7.2    999.0   0.00  
 211   15:40  575.0    84   42.4     6      2.1     8.4    999.0   0.00  
 211   15:50  552.0    85   39.9     5      5.0     7.8    999.0   0.00  
 211   16:00  525.0    85   41.3     5      4.4     6.6    999.0   0.00  
 211   16:10  478.0    84   41.3     5      4.4     7.2    999.0   0.00  
 211   16:20  446.0    84   40.3     6      4.9     8.4    999.0   0.00  
 211   16:30  418.0    83   40.0     6      4.5     8.4    999.0   0.00  
 211   16:40  385.0    82   42.4     5      4.5     7.2    999.0   0.00  
 211   16:50  351.0    82   42.6     4      4.5     6.6    999.0   0.00  
 211   17:00  321.0    83   41.6     4      4.5     5.4    999.0   0.00  
 211   17:10  283.0    83   38.0     4      4.5     5.4    999.0   0.00  
 211   17:20  248.0    83   35.2     4      6.1     6.6    999.0   0.00  
 211   17:30  215.0    84   33.6     4      7.3     6.6    999.0   0.00  
 211   17:40  185.0    84   31.0     5      7.8     7.2    999.0   0.00  
 211   17:50  160.0    83   28.7     6     11.6     8.4    999.0   0.00  
 211   18:00  135.0    82   28.5     6     19.1     8.4    999.0   0.00  
 211   18:10  107.0    82   29.8     6     16.9     8.4    999.0   0.00  
 211   18:20   84.0    81   29.2     8     36.6    10.8    999.0   0.00  
 211   18:30   63.0    81   28.6     9     48.2    10.2    999.0   0.00  
 211   18:40   41.0    80   30.7     8     43.2    10.2    999.0   0.00  
 211   18:50   22.0    80   32.5    10     51.6    11.9    999.0   0.00  
 211   19:00    9.0    80   33.2    10     64.3    11.3    999.0   0.00  
 211   19:10    3.0    80   33.2     8     48.0    10.2    999.0   0.00  
 211   19:20    1.0    79   33.1     9     57.8    11.3    999.0   0.00  
 211   19:30    0.0    79   33.7     7     46.6     9.0    999.0   0.00  
 211   19:40    0.0    78   34.2     6     18.3     7.8    999.0   0.00  
 211   19:50    0.0    78   35.3     6     10.9     7.8    999.0   0.00  
 211   20:00    0.0    77   35.4     5      4.5     6.6    999.0   0.00  
 211   20:10    0.0    77   34.8     7      7.8     7.8    999.0   0.00  
 211   20:20    0.0    77   34.4     6      4.8     7.8    999.0   0.00  
 211   20:30    0.0    77   34.1     7      4.8     9.0    999.0   0.00  
 211   20:40    0.0    76   36.2     7      4.4     8.4    999.0   0.00  
 211   20:50    0.0    76   35.4     8      4.0     9.6    999.0   0.00  
 211   21:00    0.0    76   35.4     7    358.9     9.6    999.0   0.00  
 211   21:10    0.0    76   36.3     6    309.3     7.8    999.0   0.00  
 211   21:20    0.0    75   37.3     6    305.8     6.6    999.0   0.00  
 211   21:30    0.0    76   34.8     6    305.6     7.8    999.0   0.00  
 211   21:40    0.0    75   41.4     7    304.9     7.8    999.0   0.00  
 211   21:50    0.0    73   53.7     7    305.5     7.8    999.0   0.00  
 211   22:00    0.0    72   61.9     5    311.6     6.0    999.0   0.00  
 211   22:10    0.0    72   66.9     6    312.7     7.2    999.0   0.00  
 211   22:20    0.0    72   67.8     6    312.7     7.2    999.0   0.00  
 211   22:30    0.0    72   64.6     6    312.6     7.8    999.0   0.00  
 211   22:40    0.0    72   63.4     6    312.7     7.2    999.0   0.00  
 211   22:50    0.0    72   65.3     5    313.1     6.6    999.0   0.00  
 211   23:00    0.0    72   61.3     6    312.5     7.8    999.0   0.00  
 211   23:10    0.0    73   56.0     6    312.5     6.6    999.0   0.00  
 211   23:20    0.0    74   49.9     4    312.7     4.8    999.0   0.00  
 211   23:30    0.0    74   49.6     3    312.8     4.2    999.0   0.00  
 211   23:40    0.0    74   50.9     3    313.0     4.2    999.0   0.00  
 211   23:50    0.0    72   53.6     3    314.1     4.2    999.0   0.00  
 212    0:00    0.0    72   51.6     4    314.1     6.0    999.0   0.00  
 212    0:10    0.0    71   53.4     6    314.0     7.8    999.0   0.00  
 212    0:20    0.0    71   54.3     6    314.0     7.8    999.0   0.00  
 212    0:30    0.0    72   52.5     5    313.8     6.6    999.0   0.00  
 212    0:40    0.0    72   53.5     6    313.8     7.2    999.0   0.00  
 212    0:50    0.0    72   53.5     6    313.1     7.2    999.0   0.00  
 212    1:00    0.0    72   53.1     5    313.2     6.6    999.0   0.00  
 212    1:10    0.0    73   53.9     4    313.9     5.4    999.0   0.00  
 212    1:20    0.0    73   48.4     4    314.2     6.6    999.0   0.00  
 212    1:30    0.0    72   49.1     7    302.9     9.6    999.0   0.00  
 212    1:40    0.0    71   52.9     6    312.8     9.0    999.0   0.00  
 212    1:50    0.0    72   52.3     4    313.1     5.4    999.0   0.00  
 212    2:00    0.0    73   44.8     3    313.4     4.8    999.0   0.00  
 212    2:10    0.0    74   47.1     1    314.3     2.4    999.0   0.00  
 212    2:20    0.0    75   47.5     0    314.4     3.0    999.0   0.00  
 212    2:30    0.0    75   48.5     2    314.4     4.2    999.0   0.00  
 212    2:40    0.0    76   46.8     3    314.3     3.6    999.0   0.00  
 212    2:50    0.0    75   47.2     0    314.3     2.4    999.0   0.00  
 212    3:00    0.0    76   42.7     3    314.3     4.8    999.0   0.00  
 212    3:10    0.0    75   47.3     3    314.4     4.8    999.0   0.00  
 212    3:20    0.0    71   55.7     6    312.2     7.8    999.0   0.00  
 212    3:30    0.0    66   80.1    10    268.6    14.9    999.0   0.00  
 212    3:40    0.0    63   92.7    13    242.4    15.5    999.0   0.00  
 212    3:50    0.0    63   94.1    14    236.4    18.5    999.0   0.00  
 212    4:00    0.0    63   94.6    15    233.1    18.5    999.0   0.00  
 212    4:10    0.0    63   95.0    15    237.3    18.5    999.0   0.00  
 212    4:20    0.0    63   95.2    15    228.9    20.3    999.0   0.00  
 212    4:30    0.0    63   95.4    13    236.3    18.5    999.0   0.00  
 212    4:40    0.0    62   95.0    12    250.8    16.1    999.0   0.00  
 212    4:50    0.0    63   92.9     8    301.7    11.9    999.0   0.00  
 212    5:00    0.0    66   75.7     9    299.4    12.5    999.0   0.00  
 212    5:10    2.0    72   47.9     9    298.2    13.1    999.0   0.00  
 212    5:20    7.0    73   48.6     9    306.5    11.9    999.0   0.00  
 212    5:30   20.0    73   45.3     9    307.5    12.5    999.0   0.00  
 212    5:40   38.0    74   40.7     9    302.4    13.1    999.0   0.00  
 212    5:50   61.0    76   35.1     9    311.5    11.9    999.0   0.00  
 212    6:00   88.0    77   35.7     8    308.3    10.8    999.0   0.00  
 212    6:10  116.0    76   38.8     8    305.7    10.8    999.0   0.00  
 212    6:20  147.0    73   52.1     7    310.3     9.6    999.0   0.00  
 212    6:30  181.0    71   61.6     7    308.4     9.6    999.0   0.00  
 212    6:40  189.0    67   82.0     9    288.6    11.9    999.0   0.00  
 212    6:50  240.0    65   89.5    11    269.5    14.3    999.0   0.00  
 212    7:00  280.0    68   79.0    12    257.5    15.5    999.0   0.00  
 212    7:10  311.0    68   74.8    10    278.2    16.1    999.0   0.00  
 212    7:20  347.0    68   77.1    10    282.5    14.3    999.0   0.00  
 212    7:30  377.0    69   81.7     8    303.9    13.1    999.0   0.00  
 212    7:40  417.0    71   74.0     8    297.4    11.3    999.0   0.00  

Return to Silver Peak Trail graphs page.


Western Regional Climate Center,wrcc@dri.edu